createdAt,value
2022-12-03T00:01:15.725Z,1.80
2022-12-03T00:03:43.373Z,1.80
2022-12-03T00:06:10.195Z,1.70
2022-12-03T00:08:36.881Z,1.70
2022-12-03T00:11:03.558Z,1.80
2022-12-03T00:13:30.234Z,1.80
2022-12-03T00:15:56.949Z,1.80
2022-12-03T00:18:23.697Z,1.80
2022-12-03T00:20:50.577Z,1.80
2022-12-03T00:23:17.285Z,1.80
2022-12-03T00:25:43.964Z,1.80
2022-12-03T00:28:10.618Z,1.80
2022-12-03T00:30:37.295Z,1.80
2022-12-03T00:33:04.113Z,1.80
2022-12-03T00:35:30.789Z,1.90
2022-12-03T00:37:57.455Z,1.90
2022-12-03T00:40:24.183Z,1.90
2022-12-03T00:42:50.878Z,1.90
2022-12-03T00:45:17.721Z,2.00
2022-12-03T00:47:44.523Z,2.00
2022-12-03T00:50:12.022Z,1.90
2022-12-03T00:52:38.784Z,1.90
2022-12-03T00:55:05.874Z,1.90
2022-12-03T00:57:32.546Z,1.90
2022-12-03T00:59:59.207Z,1.80
2022-12-03T01:02:25.896Z,1.90
2022-12-03T01:04:52.882Z,1.90
2022-12-03T01:07:19.786Z,1.80
2022-12-03T01:09:46.503Z,1.80
2022-12-03T01:12:13.237Z,1.70
2022-12-03T01:14:40.405Z,1.70
2022-12-03T01:17:07.075Z,1.70
2022-12-03T01:19:35.240Z,1.80
2022-12-03T01:22:02.338Z,1.90
2022-12-03T01:24:29.024Z,1.90
2022-12-03T01:26:56.661Z,2.20
2022-12-03T01:29:23.981Z,1.90
2022-12-03T01:32:08.946Z,2.00
2022-12-03T01:34:35.626Z,2.00
2022-12-03T01:37:02.440Z,2.10
2022-12-03T01:39:29.108Z,2.00
2022-12-03T01:41:58.641Z,1.90
2022-12-03T01:44:29.889Z,1.90
2022-12-03T01:46:58.773Z,1.80
2022-12-03T01:49:28.488Z,1.60
2022-12-03T01:51:56.579Z,1.70
2022-12-03T01:54:27.729Z,1.60
2022-12-03T01:56:55.867Z,1.60
2022-12-03T01:59:33.377Z,1.60
2022-12-03T02:02:11.956Z,1.60
2022-12-03T02:04:39.019Z,1.60
2022-12-03T02:07:24.737Z,1.60
2022-12-03T02:09:52.201Z,1.70
2022-12-03T02:12:20.919Z,1.70
2022-12-03T02:14:48.364Z,1.60
2022-12-03T02:17:17.184Z,1.70
2022-12-03T02:19:44.090Z,1.60
2022-12-03T02:22:29.683Z,1.70
2022-12-03T02:24:59.572Z,1.60
2022-12-03T02:27:28.342Z,1.60
2022-12-03T02:29:55.656Z,1.70
2022-12-03T02:32:23.422Z,1.60
2022-12-03T02:34:51.999Z,1.70
2022-12-03T02:37:31.925Z,1.60
2022-12-03T02:40:03.172Z,1.70
2022-12-03T02:42:36.113Z,1.60
2022-12-03T02:45:26.939Z,1.60
2022-12-03T02:48:06.567Z,1.60
2022-12-03T02:50:36.846Z,1.60
2022-12-03T02:53:09.730Z,1.60
2022-12-03T02:55:37.701Z,1.60
2022-12-03T02:58:05.719Z,1.60
2022-12-03T03:00:34.368Z,1.60
2022-12-03T03:03:03.579Z,1.70
2022-12-03T03:05:30.843Z,1.70
2022-12-03T03:07:58.391Z,1.60
2022-12-03T03:10:25.983Z,1.70
2022-12-03T03:12:54.798Z,1.70
2022-12-03T03:15:23.344Z,1.70
2022-12-03T03:17:50.431Z,1.70
2022-12-03T03:20:17.597Z,1.70
2022-12-03T03:22:44.494Z,1.70
2022-12-03T03:25:15.299Z,1.80
2022-12-03T03:27:42.771Z,1.80
2022-12-03T03:30:11.181Z,1.90
2022-12-03T03:32:39.371Z,1.90
2022-12-03T03:35:10.065Z,1.90
2022-12-03T03:37:37.098Z,1.90
2022-12-03T03:40:04.233Z,1.90
2022-12-03T03:42:31.041Z,1.90
2022-12-03T03:44:58.635Z,1.90
2022-12-03T03:47:25.701Z,1.80
2022-12-03T03:49:53.051Z,1.80
2022-12-03T03:52:19.939Z,1.70
2022-12-03T03:54:47.610Z,1.80
2022-12-03T03:57:14.490Z,1.80
2022-12-03T03:59:41.404Z,1.70
2022-12-03T04:02:18.818Z,1.70
2022-12-03T04:04:45.897Z,1.70
2022-12-03T04:07:12.730Z,1.70
2022-12-03T04:09:39.409Z,1.70
2022-12-03T04:12:24.880Z,1.70
2022-12-03T04:14:52.100Z,1.70
2022-12-03T04:17:19.274Z,1.60
2022-12-03T04:19:46.029Z,1.60
2022-12-03T04:22:31.339Z,1.50
2022-12-03T04:25:18.031Z,1.50
2022-12-03T04:28:03.511Z,1.60
2022-12-03T04:30:30.293Z,1.60
2022-12-03T04:33:23.280Z,1.60
2022-12-03T04:35:50.234Z,1.60
2022-12-03T04:38:17.021Z,1.50
2022-12-03T04:41:01.864Z,1.60
2022-12-03T04:43:29.280Z,1.50
2022-12-03T04:45:55.913Z,1.50
2022-12-03T04:48:22.709Z,1.50
2022-12-03T04:50:49.754Z,1.50
2022-12-03T04:53:25.808Z,1.60
2022-12-03T04:56:21.405Z,1.60
2022-12-03T04:58:48.133Z,1.60
2022-12-03T05:01:15.850Z,1.60
2022-12-03T05:03:43.333Z,1.50
2022-12-03T05:06:10.060Z,1.50
2022-12-03T05:08:36.794Z,1.50
2022-12-03T05:11:03.493Z,1.50
2022-12-03T05:13:30.181Z,1.50
2022-12-03T05:15:56.877Z,1.60
2022-12-03T05:18:23.559Z,1.60
2022-12-03T05:20:53.480Z,1.60
2022-12-03T05:23:21.104Z,1.70
2022-12-03T05:25:47.744Z,1.70
2022-12-03T05:28:14.699Z,1.80
2022-12-03T05:30:41.555Z,1.80
2022-12-03T05:33:08.349Z,1.80
2022-12-03T05:35:35.040Z,1.90
2022-12-03T05:38:01.857Z,1.80
2022-12-03T05:40:28.648Z,1.90
2022-12-03T05:42:56.747Z,1.90
2022-12-03T05:45:25.575Z,1.90
2022-12-03T05:47:53.838Z,1.90
2022-12-03T05:50:22.382Z,2.00
2022-12-03T05:52:49.627Z,2.00
2022-12-03T05:55:16.763Z,2.00
2022-12-03T05:57:43.994Z,1.90
2022-12-03T06:00:17.681Z,1.90
2022-12-03T06:02:44.596Z,2.00
2022-12-03T06:05:12.666Z,2.00
2022-12-03T06:07:39.508Z,2.00
2022-12-03T06:10:09.841Z,2.10
2022-12-03T06:12:36.603Z,2.10
2022-12-03T06:15:03.677Z,2.10
2022-12-03T06:17:30.488Z,2.10
2022-12-03T06:19:57.211Z,2.10
2022-12-03T06:22:24.029Z,2.10
2022-12-03T06:24:50.902Z,2.10
2022-12-03T06:27:17.690Z,2.10
2022-12-03T06:29:44.533Z,2.10
2022-12-03T06:32:11.253Z,2.10
2022-12-03T06:34:38.234Z,2.10
2022-12-03T06:37:04.946Z,2.20
2022-12-03T06:39:31.685Z,2.10
2022-12-03T06:42:01.569Z,2.10
2022-12-03T06:44:28.434Z,2.10
2022-12-03T06:46:55.235Z,2.10
2022-12-03T06:49:22.058Z,2.20
2022-12-03T06:51:48.782Z,2.10
2022-12-03T06:54:15.514Z,2.20
2022-12-03T06:56:45.344Z,2.20
2022-12-03T06:59:12.647Z,2.10
2022-12-03T07:01:39.649Z,2.10
2022-12-03T07:04:06.367Z,2.10
2022-12-03T07:06:33.068Z,2.10
2022-12-03T07:08:59.751Z,2.10
2022-12-03T07:11:31.077Z,2.20
2022-12-03T07:14:05.621Z,2.20
2022-12-03T07:16:33.192Z,2.20
2022-12-03T07:18:59.911Z,2.10
2022-12-03T07:21:26.578Z,2.10
2022-12-03T07:23:53.253Z,2.10
2022-12-03T07:26:19.949Z,2.10
2022-12-03T07:28:48.193Z,2.10
2022-12-03T07:31:15.332Z,2.10
2022-12-03T07:33:42.386Z,2.10
2022-12-03T07:36:09.648Z,2.10
2022-12-03T07:38:36.597Z,2.10
2022-12-03T07:41:03.763Z,2.10
2022-12-03T07:43:30.537Z,2.20
2022-12-03T07:45:57.306Z,2.20
2022-12-03T07:48:24.022Z,2.20
2022-12-03T07:50:50.728Z,2.20
2022-12-03T07:53:17.636Z,2.20
2022-12-03T07:55:44.381Z,2.10
2022-12-03T07:58:12.167Z,2.10
2022-12-03T08:00:38.932Z,2.10
2022-12-03T08:03:05.707Z,2.10
2022-12-03T08:05:32.380Z,2.20
2022-12-03T08:07:59.136Z,2.20
2022-12-03T08:10:26.662Z,2.20
2022-12-03T08:12:53.966Z,2.30
2022-12-03T08:15:24.324Z,2.30
2022-12-03T08:17:56.700Z,2.40
2022-12-03T08:20:26.391Z,2.40
2022-12-03T08:22:53.757Z,2.40
2022-12-03T08:25:25.018Z,2.50
2022-12-03T08:28:11.964Z,2.50
2022-12-03T08:30:38.829Z,2.50
2022-12-03T08:33:25.743Z,2.60
2022-12-03T08:35:52.529Z,2.50
2022-12-03T08:38:22.506Z,2.60
2022-12-03T08:40:51.388Z,2.60
2022-12-03T08:43:25.289Z,2.60
2022-12-03T08:45:54.364Z,2.50
2022-12-03T08:48:36.826Z,2.50
2022-12-03T08:51:20.884Z,2.50
2022-12-03T08:54:01.741Z,2.60
2022-12-03T08:56:31.636Z,2.70
2022-12-03T08:59:25.658Z,2.60
2022-12-03T09:01:56.054Z,2.70
2022-12-03T09:04:40.071Z,2.70
2022-12-03T09:07:06.788Z,2.70
2022-12-03T09:09:34.570Z,2.70
2022-12-03T09:12:02.142Z,2.80
2022-12-03T09:14:28.914Z,2.80
2022-12-03T09:16:56.617Z,2.80
2022-12-03T09:19:25.908Z,2.70
2022-12-03T09:21:53.946Z,2.70
2022-12-03T09:24:21.304Z,2.80
2022-12-03T09:26:47.904Z,2.80
2022-12-03T09:29:14.773Z,2.80
2022-12-03T09:31:41.736Z,2.90
2022-12-03T09:34:10.697Z,2.90
2022-12-03T09:36:37.533Z,2.90
2022-12-03T09:39:04.394Z,2.90
2022-12-03T09:41:31.240Z,3.00
2022-12-03T09:44:05.940Z,3.00
2022-12-03T09:46:36.098Z,2.90
2022-12-03T09:49:05.029Z,2.90
2022-12-03T09:51:34.344Z,2.90
2022-12-03T09:54:03.642Z,2.90
2022-12-03T09:56:30.479Z,2.90
2022-12-03T09:58:57.717Z,3.00
2022-12-03T10:01:29.193Z,3.00
2022-12-03T10:03:56.961Z,2.90
2022-12-03T10:06:23.932Z,2.90
2022-12-03T10:08:54.767Z,2.90
2022-12-03T10:11:25.811Z,2.90
2022-12-03T10:13:54.126Z,2.80
2022-12-03T10:16:21.337Z,2.80
2022-12-03T10:18:54.465Z,2.80
2022-12-03T10:21:25.866Z,2.80
2022-12-03T10:24:23.860Z,2.80
2022-12-03T10:26:52.729Z,2.80
2022-12-03T10:29:42.587Z,2.90
2022-12-03T10:32:11.652Z,2.90
2022-12-03T10:34:42.084Z,2.90
2022-12-03T10:37:12.138Z,3.00
2022-12-03T10:40:13.031Z,3.00
2022-12-03T10:42:41.012Z,3.10
2022-12-03T10:45:22.876Z,3.10
2022-12-03T10:48:04.876Z,3.10
2022-12-03T10:50:32.272Z,3.20
2022-12-03T10:52:59.148Z,3.20
2022-12-03T10:55:52.314Z,3.20
2022-12-03T11:02:31.969Z,3.20
2022-12-03T11:04:58.688Z,3.20
2022-12-03T11:07:26.198Z,3.30
2022-12-03T11:09:55.365Z,3.40
2022-12-03T11:12:26.270Z,3.50
2022-12-03T11:14:56.652Z,3.50
2022-12-03T11:17:40.085Z,3.50
2022-12-03T11:20:25.186Z,3.60
2022-12-03T11:22:56.313Z,3.60
2022-12-03T11:25:26.011Z,3.60
2022-12-03T11:28:11.590Z,3.60
2022-12-03T11:30:53.638Z,3.70
2022-12-03T11:33:22.374Z,3.70
2022-12-03T11:36:03.000Z,3.70
2022-12-03T11:38:38.495Z,3.60
2022-12-03T11:41:14.574Z,3.60
2022-12-03T11:44:24.310Z,3.60
2022-12-03T11:46:51.178Z,3.60
2022-12-03T11:49:34.191Z,3.60
2022-12-03T11:52:04.195Z,3.70
2022-12-03T11:54:34.406Z,3.70
2022-12-03T11:57:02.534Z,3.80
2022-12-03T11:59:29.292Z,3.80
2022-12-03T12:01:56.015Z,3.40
2022-12-03T12:04:34.995Z,4.00
2022-12-03T12:07:02.340Z,4.00
2022-12-03T12:09:52.164Z,4.00
2022-12-03T12:12:29.195Z,4.10
2022-12-03T12:14:56.961Z,4.20
2022-12-03T12:17:35.555Z,4.10
2022-12-03T12:20:31.810Z,4.10
2022-12-03T12:23:23.002Z,4.10
2022-12-03T12:25:54.139Z,4.10
2022-12-03T12:28:21.427Z,4.10
2022-12-03T12:30:48.117Z,4.00
2022-12-03T12:33:23.279Z,4.00
2022-12-03T12:35:50.812Z,4.00
2022-12-03T12:38:21.165Z,4.00
2022-12-03T12:40:50.133Z,4.00
2022-12-03T12:43:24.072Z,4.10
2022-12-03T12:45:55.093Z,3.80
2022-12-03T12:48:25.267Z,3.70
2022-12-03T12:51:07.751Z,3.50
2022-12-03T12:53:36.339Z,3.60
2022-12-03T12:56:24.799Z,3.70
2022-12-03T12:58:52.044Z,3.70
2022-12-03T13:01:32.159Z,3.80
2022-12-03T13:03:59.643Z,3.80
2022-12-03T13:06:27.853Z,3.80
2022-12-03T13:08:55.320Z,3.80
2022-12-03T13:11:24.877Z,3.80
2022-12-03T13:13:52.447Z,3.80
2022-12-03T13:16:32.075Z,3.80
2022-12-03T13:19:00.632Z,3.90
2022-12-03T13:21:39.333Z,3.90
2022-12-03T13:24:24.958Z,3.90
2022-12-03T13:26:51.719Z,3.90
2022-12-03T13:29:20.248Z,3.90
2022-12-03T13:32:01.283Z,3.90
2022-12-03T13:34:33.284Z,3.90
2022-12-03T13:37:01.314Z,3.90
2022-12-03T13:39:35.805Z,3.80
2022-12-03T13:42:27.074Z,3.80
2022-12-03T13:44:54.261Z,3.80
2022-12-03T13:47:22.789Z,3.80
2022-12-03T13:49:55.599Z,3.80
2022-12-03T13:52:25.244Z,3.80
2022-12-03T13:54:55.054Z,3.70
2022-12-03T13:57:22.074Z,3.70
2022-12-03T13:59:48.984Z,3.60
2022-12-03T14:02:15.803Z,3.60
2022-12-03T14:04:42.588Z,3.60
2022-12-03T14:07:09.288Z,3.60
2022-12-03T14:09:35.995Z,3.50
2022-12-03T14:12:22.387Z,3.50
2022-12-03T14:14:49.471Z,3.50
2022-12-03T14:17:16.232Z,3.40
2022-12-03T14:19:43.180Z,3.40
2022-12-03T14:22:10.226Z,3.40
2022-12-03T14:24:37.816Z,3.40
2022-12-03T14:27:04.502Z,3.40
2022-12-03T14:29:31.229Z,3.30
2022-12-03T14:31:59.207Z,3.30
2022-12-03T14:34:26.003Z,3.30
2022-12-03T14:36:52.721Z,3.20
2022-12-03T14:39:19.440Z,3.20
2022-12-03T14:42:05.040Z,3.20
2022-12-03T14:44:31.699Z,3.10
2022-12-03T14:46:58.425Z,3.10
2022-12-03T14:49:25.274Z,3.10
2022-12-03T14:51:52.029Z,3.10
2022-12-03T14:54:18.780Z,3.00
2022-12-03T14:56:45.459Z,3.00
2022-12-03T14:59:12.141Z,3.00
2022-12-03T15:01:39.070Z,2.90
2022-12-03T15:04:06.140Z,2.90
2022-12-03T15:06:32.894Z,2.80
2022-12-03T15:08:59.633Z,2.80
2022-12-03T15:11:26.407Z,2.80
2022-12-03T15:13:53.086Z,2.70
2022-12-03T15:16:19.872Z,2.70
2022-12-03T15:18:46.591Z,2.80
2022-12-03T15:21:13.439Z,2.80
2022-12-03T15:23:40.119Z,2.80
2022-12-03T15:26:06.962Z,2.80
2022-12-03T15:28:33.842Z,2.80
2022-12-03T15:31:00.586Z,2.90
2022-12-03T15:33:27.308Z,2.70
2022-12-03T15:35:54.033Z,2.70
2022-12-03T15:38:20.735Z,2.70
2022-12-03T15:40:47.417Z,2.60
2022-12-03T15:43:14.221Z,2.60
2022-12-03T15:45:41.044Z,2.70
2022-12-03T15:48:07.895Z,2.70
2022-12-03T15:50:39.922Z,2.60
2022-12-03T15:53:07.124Z,2.60
2022-12-03T15:55:33.848Z,2.60
2022-12-03T15:58:03.534Z,2.50
2022-12-03T16:00:30.219Z,2.50
2022-12-03T16:02:57.028Z,2.50
2022-12-03T16:05:23.737Z,2.50
2022-12-03T16:07:50.517Z,2.60
2022-12-03T16:10:21.244Z,2.60
2022-12-03T16:12:48.377Z,2.60
2022-12-03T16:15:15.376Z,2.60
2022-12-03T16:17:42.082Z,2.60
2022-12-03T16:20:09.069Z,2.60
2022-12-03T16:22:35.774Z,2.60
2022-12-03T16:25:03.212Z,2.60
2022-12-03T16:27:29.896Z,2.60
2022-12-03T16:29:57.186Z,2.60
2022-12-03T16:32:24.366Z,2.50
2022-12-03T16:34:51.118Z,3.10
2022-12-03T16:37:17.788Z,2.50
2022-12-03T16:39:47.517Z,2.50
2022-12-03T16:42:17.235Z,2.50
2022-12-03T16:45:04.584Z,2.50
2022-12-03T16:47:34.166Z,2.50
2022-12-03T16:50:07.494Z,2.50
2022-12-03T16:52:35.099Z,2.50
2022-12-03T16:55:04.750Z,2.50
2022-12-03T16:57:33.819Z,2.50
2022-12-03T17:00:40.208Z,2.50
2022-12-03T17:03:06.976Z,2.50
2022-12-03T17:05:33.691Z,2.50
2022-12-03T17:08:00.517Z,2.50
2022-12-03T17:10:27.326Z,2.50
2022-12-03T17:13:09.382Z,2.50
2022-12-03T17:15:36.716Z,2.60
2022-12-03T17:18:03.840Z,2.50
2022-12-03T17:20:32.187Z,2.50
2022-12-03T17:22:59.906Z,2.60
2022-12-03T17:25:27.492Z,2.50
2022-12-03T17:27:54.642Z,2.50
2022-12-03T17:30:21.467Z,2.50
2022-12-03T17:32:50.267Z,2.50
2022-12-03T17:35:17.737Z,2.50
2022-12-03T17:37:44.480Z,2.40
2022-12-03T17:40:13.609Z,2.40
2022-12-03T17:42:40.335Z,2.40
2022-12-03T17:45:07.807Z,2.40
2022-12-03T17:47:34.615Z,2.40
2022-12-03T17:50:01.440Z,2.40
2022-12-03T17:52:28.120Z,2.40
2022-12-03T17:55:10.434Z,2.40
2022-12-03T17:57:38.778Z,2.40
2022-12-03T18:00:07.276Z,2.30
2022-12-03T18:02:39.071Z,2.30
2022-12-03T18:05:06.269Z,2.30
2022-12-03T18:07:33.012Z,2.20
2022-12-03T18:09:59.737Z,2.30
2022-12-03T18:12:26.509Z,2.30
2022-12-03T18:14:53.211Z,2.30
2022-12-03T18:17:19.891Z,2.30
2022-12-03T18:19:46.579Z,2.30
2022-12-03T18:22:13.416Z,2.20
2022-12-03T18:24:40.567Z,2.20
2022-12-03T18:27:07.261Z,2.20
2022-12-03T18:29:33.946Z,2.30
2022-12-03T18:32:00.751Z,2.20
2022-12-03T18:34:27.515Z,2.30
2022-12-03T18:36:54.277Z,2.20
2022-12-03T18:39:27.139Z,2.20
2022-12-03T18:41:54.125Z,2.20
2022-12-03T18:44:21.059Z,2.20
2022-12-03T18:46:55.392Z,2.20
2022-12-03T18:49:22.571Z,2.20
2022-12-03T18:51:52.132Z,2.20
2022-12-03T18:54:22.639Z,2.10
2022-12-03T18:56:49.394Z,2.20
2022-12-03T18:59:16.043Z,2.10
2022-12-03T19:01:42.779Z,2.10
2022-12-03T19:04:10.404Z,2.10
2022-12-03T19:06:37.080Z,2.10
2022-12-03T19:09:04.671Z,2.10
2022-12-03T19:11:33.882Z,2.10
2022-12-03T19:14:02.774Z,2.10
2022-12-03T19:16:29.540Z,2.10
2022-12-03T19:18:56.313Z,2.10
2022-12-03T19:21:23.249Z,2.10
2022-12-03T19:24:16.414Z,2.10
2022-12-03T19:26:36.632Z,2.20
2022-12-03T19:29:03.410Z,2.10
2022-12-03T19:31:33.257Z,2.10
2022-12-03T19:34:00.140Z,2.10
2022-12-03T19:36:29.243Z,2.10
2022-12-03T19:38:57.766Z,2.10
2022-12-03T19:41:30.656Z,2.10
2022-12-03T19:43:58.135Z,2.10
2022-12-03T19:46:26.206Z,2.10
2022-12-03T19:48:54.007Z,2.10
2022-12-03T19:51:34.003Z,2.00
2022-12-03T19:54:01.287Z,2.00
2022-12-03T19:56:30.194Z,2.10
2022-12-03T19:58:57.460Z,2.10
2022-12-03T20:01:30.128Z,2.10
2022-12-03T20:03:59.188Z,2.10
2022-12-03T20:06:28.576Z,2.00
2022-12-03T20:08:59.937Z,2.10
2022-12-03T20:11:29.983Z,2.00
2022-12-03T20:13:59.340Z,2.00
2022-12-03T20:16:27.709Z,2.00
2022-12-03T20:18:59.882Z,2.00
2022-12-03T20:21:28.737Z,1.90
2022-12-03T20:23:55.477Z,2.00
2022-12-03T20:26:22.730Z,2.00
2022-12-03T20:28:49.640Z,2.00
2022-12-03T20:31:19.144Z,2.00
2022-12-03T20:33:48.723Z,2.00
2022-12-03T20:36:18.249Z,1.90
2022-12-03T20:38:45.335Z,1.90
2022-12-03T20:41:15.329Z,1.90
2022-12-03T20:43:42.491Z,1.90
2022-12-03T20:46:13.749Z,1.80
2022-12-03T20:48:41.588Z,1.80
2022-12-03T20:51:11.712Z,1.80
2022-12-03T20:53:38.756Z,1.80
2022-12-03T20:56:06.930Z,1.80
2022-12-03T20:58:34.458Z,1.80
2022-12-03T21:01:24.440Z,1.70
2022-12-03T21:03:52.866Z,1.70
2022-12-03T21:06:22.239Z,1.70
2022-12-03T21:08:49.193Z,1.70
2022-12-03T21:11:21.604Z,1.70
2022-12-03T21:13:48.289Z,1.80
2022-12-03T21:16:18.891Z,1.80
2022-12-03T21:18:46.081Z,1.80
2022-12-03T21:21:14.487Z,1.80
2022-12-03T21:23:41.365Z,1.80
2022-12-03T21:26:16.948Z,1.70
2022-12-03T21:28:45.644Z,1.80
2022-12-03T21:31:25.184Z,1.80
2022-12-03T21:33:56.519Z,1.80
2022-12-03T21:36:25.040Z,1.80
2022-12-03T21:38:52.457Z,1.80
2022-12-03T21:41:19.161Z,1.80
2022-12-03T21:43:45.997Z,1.80
2022-12-03T21:47:10.569Z,1.80
2022-12-03T21:49:02.095Z,1.70
2022-12-03T21:51:28.963Z,1.70
2022-12-03T21:53:55.661Z,1.70
2022-12-03T21:56:22.345Z,1.70
2022-12-03T21:58:49.021Z,1.70
2022-12-03T22:01:23.323Z,1.70
2022-12-03T22:03:50.613Z,1.70
2022-12-03T22:06:17.927Z,1.70
2022-12-03T22:08:45.015Z,1.70
2022-12-03T22:11:14.989Z,1.70
2022-12-03T22:13:42.509Z,1.70
2022-12-03T22:16:12.370Z,1.70
2022-12-03T22:18:39.496Z,1.80
2022-12-03T22:21:08.136Z,1.90
2022-12-03T22:23:35.108Z,2.00
2022-12-03T22:26:05.318Z,2.00
2022-12-03T22:28:33.009Z,2.00
2022-12-03T22:30:59.804Z,2.00
2022-12-03T22:33:26.601Z,2.00
2022-12-03T22:36:02.010Z,1.90
2022-12-03T22:38:30.248Z,1.90
2022-12-03T22:40:57.135Z,1.90
2022-12-03T22:43:24.442Z,1.90
2022-12-03T22:45:54.794Z,1.90
2022-12-03T22:48:22.981Z,1.90
2022-12-03T22:50:51.165Z,1.90
2022-12-03T22:53:18.681Z,1.90
2022-12-03T22:55:45.405Z,1.90
2022-12-03T22:59:03.336Z,1.90
2022-12-03T23:01:35.659Z,2.00
2022-12-03T23:04:02.901Z,2.00
2022-12-03T23:06:30.123Z,2.00
2022-12-03T23:08:58.644Z,2.00
2022-12-03T23:11:25.811Z,2.00
2022-12-03T23:13:52.995Z,2.00
2022-12-03T23:16:22.998Z,2.00
2022-12-03T23:18:50.313Z,2.00
2022-12-03T23:21:23.917Z,2.00
2022-12-03T23:23:53.923Z,2.00
2022-12-03T23:26:20.872Z,2.00
2022-12-03T23:28:47.947Z,2.00
2022-12-03T23:31:35.023Z,2.00
2022-12-03T23:34:02.137Z,1.90
2022-12-03T23:36:30.255Z,1.70
2022-12-03T23:38:57.310Z,1.70
2022-12-03T23:41:24.959Z,1.70
2022-12-03T23:43:51.928Z,1.80
2022-12-03T23:46:24.629Z,1.90
2022-12-03T23:48:52.026Z,2.00
2022-12-03T23:51:20.423Z,2.00
2022-12-03T23:53:47.506Z,2.10
2022-12-03T23:56:26.204Z,2.10
2022-12-03T23:58:52.941Z,2.10
